createdAt,value
2018-07-22T00:00:56.920Z,63.00
2018-07-22T00:03:25.192Z,62.90
2018-07-22T00:05:54.319Z,63.00
2018-07-22T00:08:23.043Z,62.90
2018-07-22T00:10:51.779Z,63.00
2018-07-22T00:15:50.004Z,63.00
2018-07-22T00:18:18.815Z,63.00
2018-07-22T00:20:50.225Z,62.90
2018-07-22T00:23:18.705Z,62.80
2018-07-22T00:25:46.950Z,62.80
2018-07-22T00:28:18.118Z,62.80
2018-07-22T00:30:48.164Z,63.00
2018-07-22T00:33:16.393Z,62.80
2018-07-22T00:35:49.989Z,63.00
2018-07-22T00:38:20.763Z,63.00
2018-07-22T00:40:49.499Z,63.10
2018-07-22T00:43:18.339Z,62.90
2018-07-22T00:45:46.611Z,63.10
2018-07-22T00:48:16.060Z,63.10
2018-07-22T00:50:44.429Z,63.00
2018-07-22T00:53:12.876Z,63.00
2018-07-22T00:55:42.886Z,63.90
2018-07-22T00:58:11.503Z,63.10
2018-07-22T01:00:41.019Z,63.20
2018-07-22T01:03:10.694Z,63.20
2018-07-22T01:05:39.845Z,63.40
2018-07-22T01:08:10.611Z,63.40
2018-07-22T01:10:39.599Z,63.70
2018-07-22T01:13:08.736Z,63.10
2018-07-22T01:15:37.600Z,63.70
2018-07-22T01:18:05.895Z,63.70
2018-07-22T01:20:35.839Z,63.70
2018-07-22T01:23:04.881Z,63.70
2018-07-22T01:25:34.132Z,64.00
2018-07-22T01:28:04.063Z,64.00
2018-07-22T01:30:32.958Z,64.20
2018-07-22T01:33:02.865Z,64.40
2018-07-22T01:35:34.342Z,64.50
2018-07-22T01:38:03.271Z,65.00
2018-07-22T01:42:59.483Z,64.70
2018-07-22T01:45:29.802Z,64.70
2018-07-22T01:47:58.623Z,65.00
2018-07-22T01:50:28.083Z,65.00
2018-07-22T01:52:57.294Z,65.00
2018-07-22T01:55:26.671Z,65.20
2018-07-22T01:57:55.169Z,65.30
2018-07-22T02:00:25.530Z,65.70
2018-07-22T02:05:22.487Z,66.90
2018-07-22T02:07:51.781Z,66.00
2018-07-22T02:10:23.263Z,66.20
2018-07-22T02:12:52.535Z,66.40
2018-07-22T02:15:26.450Z,66.40
2018-07-22T02:17:56.531Z,66.40
2018-07-22T02:20:24.810Z,66.50
2018-07-22T02:22:53.902Z,66.80
2018-07-22T02:25:22.222Z,66.90
2018-07-22T02:27:51.455Z,67.00
2018-07-22T02:30:20.682Z,67.20
2018-07-22T02:32:51.492Z,67.30
2018-07-22T02:35:20.408Z,67.60
2018-07-22T02:37:49.590Z,67.80
2018-07-22T02:40:18.899Z,67.90
2018-07-22T02:42:47.737Z,67.90
2018-07-22T02:45:16.943Z,68.00
2018-07-22T02:47:46.243Z,68.20
2018-07-22T02:50:15.194Z,68.30
2018-07-22T02:52:44.878Z,68.60
2018-07-22T02:55:16.079Z,68.70
2018-07-22T02:57:44.782Z,69.00
2018-07-22T03:00:16.001Z,69.20
2018-07-22T03:02:45.476Z,69.90
2018-07-22T03:05:14.239Z,69.20
2018-07-22T03:07:46.887Z,69.20
2018-07-22T03:10:17.341Z,70.20
2018-07-22T03:12:50.542Z,69.50
2018-07-22T03:15:18.789Z,69.90
2018-07-22T03:17:47.306Z,70.20
2018-07-22T03:20:22.567Z,70.50
2018-07-22T03:22:51.702Z,71.00
2018-07-22T03:25:20.517Z,71.20
2018-07-22T03:27:51.055Z,71.40
2018-07-22T03:30:22.652Z,71.60
2018-07-22T03:32:51.983Z,71.90
2018-07-22T03:40:18.486Z,72.30
2018-07-22T03:42:47.044Z,72.50
2018-07-22T03:45:16.517Z,72.60
2018-07-22T03:47:46.672Z,73.20
2018-07-22T03:50:16.702Z,72.50
2018-07-22T03:52:45.346Z,72.40
2018-07-22T03:55:17.034Z,72.60
2018-07-22T03:57:45.290Z,72.80
2018-07-22T04:00:14.783Z,72.80
2018-07-22T04:02:43.958Z,73.00
2018-07-22T04:05:15.205Z,73.20
2018-07-22T04:07:45.154Z,73.30
2018-07-22T04:10:13.734Z,73.60
2018-07-22T04:12:43.082Z,73.40
2018-07-22T04:15:11.346Z,73.50
2018-07-22T04:17:40.379Z,73.50
2018-07-22T04:20:08.558Z,73.30
2018-07-22T04:22:37.579Z,73.20
2018-07-22T04:25:07.082Z,72.80
2018-07-22T04:27:35.299Z,72.50
2018-07-22T04:30:04.986Z,72.30
2018-07-22T04:32:33.782Z,73.00
2018-07-22T04:35:05.293Z,72.10
2018-07-22T04:37:34.759Z,72.00
2018-07-22T04:40:04.907Z,71.90
2018-07-22T04:42:33.970Z,71.70
2018-07-22T04:45:03.129Z,71.70
2018-07-22T04:47:31.381Z,71.70
2018-07-22T04:50:00.864Z,71.70
2018-07-22T04:52:30.879Z,71.90
2018-07-22T04:55:00.346Z,72.00
2018-07-22T04:57:29.013Z,72.00
2018-07-22T04:59:58.946Z,72.20
2018-07-22T05:02:30.419Z,72.30
2018-07-22T05:05:00.407Z,72.40
2018-07-22T05:07:29.983Z,72.50
2018-07-22T05:12:26.615Z,72.80
2018-07-22T05:14:55.570Z,72.70
2018-07-22T05:17:23.794Z,72.70
2018-07-22T05:19:52.935Z,72.70
2018-07-22T05:22:24.079Z,72.50
2018-07-22T05:24:52.359Z,72.50
2018-07-22T05:27:21.225Z,73.40
2018-07-22T05:29:50.211Z,72.70
2018-07-22T05:32:18.423Z,73.00
2018-07-22T05:34:46.741Z,72.90
2018-07-22T05:37:17.063Z,73.00
2018-07-22T05:39:46.286Z,73.10
2018-07-22T05:42:15.008Z,73.20
2018-07-22T05:44:43.214Z,73.50
2018-07-22T05:47:13.519Z,73.70
2018-07-22T05:49:43.485Z,73.90
2018-07-22T05:52:13.732Z,74.20
2018-07-22T05:54:42.949Z,74.40
2018-07-22T05:57:13.204Z,74.40
2018-07-22T05:59:41.625Z,74.60
2018-07-22T06:02:10.720Z,74.70
2018-07-22T06:04:40.094Z,74.70
2018-07-22T06:07:09.895Z,74.80
2018-07-22T06:09:38.124Z,74.90
2018-07-22T06:12:07.069Z,74.90
2018-07-22T06:14:36.167Z,75.20
2018-07-22T06:17:04.672Z,75.50
2018-07-22T06:19:32.902Z,75.50
2018-07-22T06:22:01.787Z,75.70
2018-07-22T06:24:32.087Z,75.80
2018-07-22T06:27:01.545Z,75.80
2018-07-22T06:29:31.159Z,75.80
2018-07-22T06:32:01.388Z,75.80
2018-07-22T06:34:29.685Z,76.00
2018-07-22T06:36:59.211Z,76.00
2018-07-22T06:39:28.472Z,75.90
2018-07-22T06:41:57.535Z,75.70
2018-07-22T06:44:26.854Z,75.70
2018-07-22T06:46:56.064Z,75.50
2018-07-22T06:49:24.827Z,75.10
2018-07-22T06:51:53.677Z,75.10
2018-07-22T06:54:22.750Z,75.10
2018-07-22T06:56:54.085Z,74.90
2018-07-22T06:59:24.069Z,74.70
2018-07-22T07:01:53.513Z,74.40
2018-07-22T07:04:21.813Z,74.10
2018-07-22T07:10:56.740Z,70.80
2018-07-22T07:13:26.456Z,72.40
2018-07-22T07:15:57.484Z,73.20
2018-07-22T07:18:27.344Z,73.50
2018-07-22T07:20:57.056Z,73.20
2018-07-22T07:23:26.062Z,72.80
2018-07-22T07:25:54.251Z,72.20
2018-07-22T07:28:22.938Z,72.00
2018-07-22T07:30:53.316Z,71.60
2018-07-22T07:33:21.966Z,71.40
2018-07-22T07:35:50.711Z,71.10
2018-07-22T07:40:48.642Z,71.00
2018-07-22T07:43:17.098Z,70.00
2018-07-22T07:45:45.359Z,69.50
2018-07-22T07:48:14.289Z,69.10
2018-07-22T07:50:43.645Z,68.80
2018-07-22T07:53:12.004Z,68.40
2018-07-22T07:55:40.353Z,67.70
2018-07-22T07:58:08.566Z,67.10
2018-07-22T08:00:37.792Z,66.90
2018-07-22T08:03:06.439Z,66.70
2018-07-22T08:05:38.313Z,66.30
2018-07-22T08:08:07.631Z,65.90
2018-07-22T08:10:36.562Z,65.50
2018-07-22T08:13:05.458Z,65.20
2018-07-22T08:15:35.918Z,65.10
2018-07-22T08:18:05.206Z,65.10
2018-07-22T08:20:34.796Z,64.90
2018-07-22T08:23:04.915Z,64.40
2018-07-22T08:25:35.226Z,63.70
2018-07-22T08:28:06.383Z,63.10
2018-07-22T08:30:36.913Z,62.50
2018-07-22T08:33:05.663Z,61.90
2018-07-22T08:35:36.819Z,61.60
2018-07-22T08:38:05.962Z,61.20
2018-07-22T08:40:36.170Z,60.60
2018-07-22T08:43:06.288Z,60.10
2018-07-22T08:45:36.530Z,59.90
2018-07-22T08:48:06.468Z,59.90
2018-07-22T08:50:34.662Z,60.60
2018-07-22T08:55:32.798Z,59.00
2018-07-22T08:58:02.505Z,59.10
2018-07-22T09:00:30.699Z,58.60
2018-07-22T09:02:58.907Z,58.50
2018-07-22T09:05:29.333Z,58.60
2018-07-22T09:07:58.425Z,58.50
2018-07-22T09:10:28.400Z,58.20
2018-07-22T09:12:57.702Z,57.80
2018-07-22T09:15:27.033Z,57.60
2018-07-22T09:17:55.328Z,57.00
2018-07-22T09:20:23.882Z,57.00
2018-07-22T09:22:52.588Z,56.40
2018-07-22T09:25:22.398Z,56.50
2018-07-22T09:27:54.637Z,55.50
2018-07-22T09:30:25.573Z,55.00
2018-07-22T09:32:53.791Z,55.00
2018-07-22T09:35:22.703Z,55.30
2018-07-22T09:37:52.356Z,55.20
2018-07-22T09:40:22.602Z,55.30
2018-07-22T09:42:54.280Z,55.00
2018-07-22T09:45:23.736Z,54.40
2018-07-22T09:47:52.515Z,53.90
2018-07-22T09:50:24.484Z,53.70
2018-07-22T09:52:53.762Z,53.50
2018-07-22T09:55:23.687Z,53.40
2018-07-22T09:57:52.365Z,53.20
2018-07-22T10:00:26.438Z,53.20
2018-07-22T10:02:55.615Z,52.70
2018-07-22T10:05:23.867Z,52.50
2018-07-22T10:07:52.589Z,51.10
2018-07-22T10:10:23.077Z,50.40
2018-07-22T10:12:51.630Z,50.50
2018-07-22T10:15:23.067Z,50.40
2018-07-22T10:17:52.243Z,50.20
2018-07-22T10:20:20.470Z,50.40
2018-07-22T10:25:18.958Z,49.80
2018-07-22T10:27:48.017Z,49.40
2018-07-22T10:30:16.217Z,48.90
2018-07-22T10:32:44.448Z,48.10
2018-07-22T10:35:12.660Z,47.90
2018-07-22T10:37:42.130Z,48.00
2018-07-22T10:40:12.158Z,48.00
2018-07-22T10:42:40.359Z,47.30
2018-07-22T10:45:10.067Z,47.20
2018-07-22T10:47:38.804Z,47.10
2018-07-22T10:50:08.142Z,47.40
2018-07-22T10:52:36.383Z,47.00
2018-07-22T10:55:05.977Z,46.70
2018-07-22T11:00:07.138Z,45.80
2018-07-22T11:02:35.761Z,45.70
2018-07-22T11:05:05.970Z,45.80
2018-07-22T11:07:39.134Z,45.80
2018-07-22T11:10:07.555Z,45.40
2018-07-22T11:12:36.002Z,45.60
2018-07-22T11:15:05.807Z,45.60
2018-07-22T11:17:35.731Z,45.30
2018-07-22T11:20:04.704Z,44.60
2018-07-22T11:22:34.374Z,44.90
2018-07-22T11:25:04.178Z,44.60
2018-07-22T11:27:33.016Z,44.50
2018-07-22T11:30:02.713Z,43.80
2018-07-22T11:32:31.714Z,43.40
2018-07-22T11:35:01.035Z,43.50
2018-07-22T11:37:29.855Z,43.10
2018-07-22T11:39:58.742Z,42.90
2018-07-22T11:42:28.048Z,42.90
2018-07-22T11:44:56.271Z,42.70
2018-07-22T11:47:25.180Z,42.10
2018-07-22T11:49:54.826Z,42.20
2018-07-22T11:52:23.942Z,42.20
2018-07-22T11:54:53.537Z,41.20
2018-07-22T11:57:22.072Z,41.20
2018-07-22T11:59:52.130Z,40.10
2018-07-22T12:04:49.250Z,40.30
2018-07-22T12:07:18.440Z,39.80
2018-07-22T12:09:48.880Z,39.50
2018-07-22T12:12:17.150Z,39.30
2018-07-22T12:14:52.823Z,39.40
2018-07-22T12:17:22.516Z,39.10
2018-07-22T12:19:51.150Z,38.90
2018-07-22T12:22:19.367Z,39.00
2018-07-22T12:24:48.118Z,38.60
2018-07-22T12:27:19.102Z,37.90
2018-07-22T12:29:48.774Z,37.80
2018-07-22T12:32:16.975Z,38.40
2018-07-22T12:34:47.738Z,38.20
2018-07-22T12:37:16.717Z,38.20
2018-07-22T12:42:13.321Z,39.10
2018-07-22T12:44:43.720Z,38.30
2018-07-22T12:47:14.016Z,37.80
2018-07-22T12:49:42.871Z,38.10
2018-07-22T12:52:12.522Z,37.90
2018-07-22T12:54:42.269Z,37.90
2018-07-22T12:57:10.784Z,37.10
2018-07-22T12:59:40.872Z,36.70
2018-07-22T13:02:10.319Z,35.70
2018-07-22T13:04:40.116Z,35.80
2018-07-22T13:07:09.327Z,35.90
2018-07-22T13:09:38.646Z,36.30
2018-07-22T13:12:07.687Z,36.40
2018-07-22T13:14:36.582Z,36.20
2018-07-22T13:17:05.115Z,36.00
2018-07-22T13:19:33.761Z,35.30
2018-07-22T13:22:01.965Z,35.40
2018-07-22T13:24:33.086Z,35.60
2018-07-22T13:27:02.868Z,35.30
2018-07-22T13:29:33.003Z,34.90
2018-07-22T13:32:01.935Z,35.40
2018-07-22T13:34:31.296Z,35.10
2018-07-22T13:37:00.855Z,35.30
2018-07-22T13:39:29.536Z,35.60
2018-07-22T13:41:57.833Z,35.80
2018-07-22T13:44:26.538Z,35.10
2018-07-22T13:46:55.547Z,35.20
2018-07-22T13:49:25.603Z,35.50
2018-07-22T13:51:54.181Z,35.20
2018-07-22T13:54:25.870Z,34.80
2018-07-22T13:57:00.954Z,32.80
2018-07-22T13:59:31.220Z,31.10
2018-07-22T14:02:00.598Z,29.40
2018-07-22T14:06:58.491Z,28.10
2018-07-22T14:09:27.001Z,27.20
2018-07-22T14:11:55.988Z,26.00
2018-07-22T14:14:24.880Z,26.70
2018-07-22T14:16:54.040Z,25.80
2018-07-22T14:19:25.047Z,24.90
2018-07-22T14:21:54.427Z,24.30
2018-07-22T14:24:23.388Z,24.10
2018-07-22T14:26:52.219Z,24.00
2018-07-22T14:29:21.774Z,23.80
2018-07-22T14:31:52.528Z,23.10
2018-07-22T14:34:20.695Z,22.90
2018-07-22T14:36:49.256Z,22.70
2018-07-22T14:39:19.970Z,22.60
2018-07-22T14:41:48.704Z,22.10
2018-07-22T14:44:18.028Z,22.00
2018-07-22T14:46:47.487Z,21.80
2018-07-22T14:49:15.964Z,21.90
2018-07-22T14:51:45.313Z,21.30
2018-07-22T14:54:14.423Z,21.20
2018-07-22T14:56:43.487Z,20.80
2018-07-22T14:59:17.531Z,21.00
2018-07-22T15:01:46.706Z,20.40
2018-07-22T15:04:16.324Z,20.00
2018-07-22T15:06:46.142Z,19.20
2018-07-22T15:09:18.097Z,19.30
2018-07-22T15:11:48.123Z,19.40
2018-07-22T15:14:18.175Z,19.50
2018-07-22T15:16:50.740Z,19.80
2018-07-22T15:19:19.408Z,19.60
2018-07-22T15:21:49.909Z,19.70
2018-07-22T15:24:18.630Z,19.90
2018-07-22T15:26:48.844Z,20.10
2018-07-22T15:29:17.396Z,19.60
2018-07-22T15:31:49.008Z,19.20
2018-07-22T15:34:17.686Z,18.80
2018-07-22T15:36:46.027Z,19.00
2018-07-22T15:41:42.774Z,20.20
2018-07-22T15:44:11.325Z,21.20
2018-07-22T15:46:39.842Z,21.60
2018-07-22T15:49:08.875Z,22.50
2018-07-22T15:51:38.166Z,23.20
2018-07-22T15:54:06.908Z,23.70
2018-07-22T15:56:36.127Z,24.50
2018-07-22T15:59:06.692Z,25.90
2018-07-22T16:01:36.510Z,26.10
2018-07-22T16:04:07.169Z,26.70
2018-07-22T16:06:35.987Z,27.40
2018-07-22T16:09:08.767Z,27.60
2018-07-22T16:11:37.043Z,28.20
2018-07-22T16:14:07.957Z,28.50
2018-07-22T16:16:37.737Z,28.90
2018-07-22T16:19:07.994Z,29.20
2018-07-22T16:21:38.166Z,29.50
2018-07-22T16:24:06.839Z,29.60
2018-07-22T16:29:05.280Z,30.00
2018-07-22T16:31:34.699Z,30.20
2018-07-22T16:34:03.796Z,30.20
2018-07-22T16:36:34.911Z,30.20
2018-07-22T16:39:06.922Z,30.20
2018-07-22T16:41:38.399Z,30.60
2018-07-22T16:44:07.121Z,30.80
2018-07-22T16:46:35.779Z,30.90
2018-07-22T16:49:04.382Z,31.00
2018-07-22T16:51:36.662Z,31.30
2018-07-22T16:54:05.515Z,31.60
2018-07-22T16:56:35.262Z,31.70
2018-07-22T16:59:03.794Z,31.50
2018-07-22T17:01:36.761Z,31.80
2018-07-22T17:04:10.856Z,32.20
2018-07-22T17:06:40.084Z,32.40
2018-07-22T17:09:10.165Z,32.70
2018-07-22T17:11:39.914Z,32.80
2018-07-22T17:14:08.630Z,32.80
2018-07-22T17:16:37.810Z,32.90
2018-07-22T17:19:08.372Z,32.70
2018-07-22T17:21:37.110Z,32.50
2018-07-22T17:24:05.813Z,32.60
2018-07-22T17:26:34.035Z,32.80
2018-07-22T17:29:02.683Z,33.10
2018-07-22T17:31:31.924Z,32.10
2018-07-22T17:34:00.203Z,30.80
2018-07-22T17:36:29.384Z,30.30
2018-07-22T17:39:00.591Z,30.00
2018-07-22T17:41:33.709Z,30.30
2018-07-22T17:44:01.968Z,30.60
2018-07-22T17:46:32.027Z,30.80
2018-07-22T17:49:04.470Z,31.20
2018-07-22T17:51:33.146Z,31.40
2018-07-22T17:54:01.385Z,31.20
2018-07-22T17:56:31.867Z,31.20
2018-07-22T17:59:02.383Z,31.10
2018-07-22T18:01:32.027Z,30.40
2018-07-22T18:04:04.015Z,29.30
2018-07-22T18:06:34.893Z,27.80
2018-07-22T18:09:07.815Z,26.40
2018-07-22T18:11:36.086Z,26.40
2018-07-22T18:16:34.947Z,28.20
2018-07-22T18:19:04.050Z,28.90
2018-07-22T18:21:32.385Z,29.50
2018-07-22T18:24:02.717Z,30.10
2018-07-22T18:26:33.439Z,30.80
2018-07-22T18:29:01.895Z,31.30
2018-07-22T18:31:31.775Z,31.90
2018-07-22T18:34:00.997Z,32.30
2018-07-22T18:36:29.905Z,32.80
2018-07-22T18:41:29.836Z,33.30
2018-07-22T18:43:59.296Z,33.30
2018-07-22T18:46:30.558Z,33.60
2018-07-22T18:48:59.476Z,34.00
2018-07-22T18:51:29.974Z,34.40
2018-07-22T18:53:59.629Z,34.90
2018-07-22T18:56:28.445Z,35.30
2018-07-22T18:58:58.518Z,35.70
2018-07-22T19:01:27.342Z,36.30
2018-07-22T19:03:56.626Z,36.80
2018-07-22T19:06:25.611Z,37.40
2018-07-22T19:09:01.730Z,38.10
2018-07-22T19:11:31.007Z,38.40
2018-07-22T19:13:59.923Z,38.60
2018-07-22T19:16:28.478Z,38.90
2018-07-22T19:18:58.130Z,39.20
2018-07-22T19:21:26.783Z,39.40
2018-07-22T19:23:56.418Z,39.60
2018-07-22T19:26:26.539Z,40.00
2018-07-22T19:28:55.842Z,40.30
2018-07-22T19:31:24.942Z,40.60
2018-07-22T19:33:54.082Z,41.20
2018-07-22T19:36:22.479Z,41.60
2018-07-22T19:38:51.180Z,42.00
2018-07-22T19:41:23.762Z,42.40
2018-07-22T19:43:53.443Z,42.60
2018-07-22T19:46:21.917Z,42.80
2018-07-22T19:48:51.339Z,43.00
2018-07-22T19:51:21.860Z,43.20
2018-07-22T19:53:51.352Z,43.30
2018-07-22T19:58:50.680Z,44.10
2018-07-22T20:01:36.686Z,43.90
2018-07-22T20:06:38.080Z,44.40
2018-07-22T20:09:10.312Z,44.70
2018-07-22T20:16:36.513Z,45.70
2018-07-22T20:19:06.635Z,45.30
2018-07-22T20:21:38.497Z,45.50
2018-07-22T20:24:08.221Z,45.70
2018-07-22T20:26:42.117Z,45.80
2018-07-22T20:29:12.791Z,46.00
2018-07-22T20:31:41.952Z,46.00
2018-07-22T20:34:11.410Z,46.30
2018-07-22T20:36:41.896Z,46.50
2018-07-22T20:39:13.830Z,46.80
2018-07-22T20:41:43.096Z,47.00
2018-07-22T20:44:13.889Z,47.10
2018-07-22T20:46:47.149Z,47.30
2018-07-22T20:49:15.763Z,47.40
2018-07-22T20:51:43.971Z,47.60
2018-07-22T20:54:13.775Z,47.60
2018-07-22T20:56:42.520Z,47.80
2018-07-22T20:59:12.930Z,48.00
2018-07-22T21:01:42.858Z,48.20
2018-07-22T21:04:11.614Z,48.20
2018-07-22T21:06:41.648Z,48.40
2018-07-22T21:09:10.372Z,48.40
2018-07-22T21:11:50.162Z,48.80
2018-07-22T21:14:19.231Z,48.90
2018-07-22T21:16:47.943Z,49.00
2018-07-22T21:19:22.681Z,49.10
2018-07-22T21:21:52.319Z,49.20
2018-07-22T21:24:23.602Z,49.50
2018-07-22T21:26:53.010Z,49.50
2018-07-22T21:29:23.854Z,49.50
2018-07-22T21:31:52.124Z,49.50
2018-07-22T21:34:20.326Z,49.60
2018-07-22T21:36:51.442Z,49.70
2018-07-22T21:39:19.673Z,49.80
2018-07-22T21:44:18.511Z,50.00
2018-07-22T21:46:46.718Z,50.00
2018-07-22T21:49:16.197Z,50.20
2018-07-22T21:51:45.093Z,50.90
2018-07-22T21:54:14.271Z,50.40
2018-07-22T21:56:44.718Z,50.50
2018-07-22T21:59:14.571Z,50.60
2018-07-22T22:01:43.412Z,50.60
2018-07-22T22:04:12.326Z,50.70
2018-07-22T22:06:40.558Z,50.70
2018-07-22T22:09:09.370Z,50.80
2018-07-22T22:11:37.587Z,50.90
2018-07-22T22:14:07.115Z,51.40
2018-07-22T22:16:36.091Z,51.00
2018-07-22T22:19:05.152Z,51.10
2018-07-22T22:21:33.392Z,51.20
2018-07-22T22:24:03.387Z,51.10
2018-07-22T22:26:33.293Z,51.00
2018-07-22T22:29:02.363Z,51.10
2018-07-22T22:31:31.411Z,51.00
2018-07-22T22:33:59.618Z,51.00
2018-07-22T22:36:30.042Z,50.90
2018-07-22T22:39:00.050Z,50.90
2018-07-22T22:43:57.271Z,50.90
2018-07-22T22:46:27.302Z,51.00
2018-07-22T22:48:58.331Z,51.00
2018-07-22T22:51:26.740Z,51.10
2018-07-22T22:53:55.575Z,51.10
2018-07-22T22:56:24.094Z,51.20
2018-07-22T22:59:06.762Z,51.20
2018-07-22T23:01:37.348Z,51.40
2018-07-22T23:04:06.040Z,51.40
2018-07-22T23:06:35.168Z,51.50
2018-07-22T23:09:05.016Z,51.60
2018-07-22T23:11:35.433Z,51.50
2018-07-22T23:14:04.775Z,51.50
2018-07-22T23:16:35.198Z,51.70
2018-07-22T23:19:04.094Z,52.00
2018-07-22T23:21:39.963Z,52.10
2018-07-22T23:24:09.719Z,52.30
2018-07-22T23:26:37.907Z,52.50
2018-07-22T23:29:06.902Z,52.80
2018-07-22T23:31:36.003Z,53.00
2018-07-22T23:34:04.394Z,53.20
2018-07-22T23:36:32.910Z,53.20
2018-07-22T23:39:03.027Z,53.30
2018-07-22T23:41:31.963Z,53.70
2018-07-22T23:44:01.270Z,54.00
2018-07-22T23:46:31.003Z,54.00
2018-07-22T23:48:59.666Z,54.10
2018-07-22T23:51:28.240Z,53.80
2018-07-22T23:54:00.951Z,54.00
2018-07-22T23:56:29.427Z,54.10
2018-07-22T23:58:58.863Z,54.00
